Campbell AAF (Fort Campbell) Air Field
KHOP : now visible

Airfield :











YOU CAN JOIN US ON...

 
LOGIN :

Register | Disclaimer

   EN    FR    IT 

 









Legend :    VFR   Marginal VFR   IFR   Intensive IFR   Very Intensive IFR
Visi :
Ceiling :
>= 8 km
>= 3000ft
5 to 8 km
1000 to 3000 ft
1500m to 5 km
500 to 1000 ft
800 to 1500m
200 to 500 ft
< 800m
< 200 ft
Symbols :   Thunderstorms  Fog  Heavy snow  Heavy precipitations  Wind > 20 kt






- Airport Elevation : 573 ft


KHOP - Campbell AAF (Fort Campbell) Air Field

CURRENT METAR :
  • 190156Z AUTO 22003KT 10SM BKN110 BKN140 07/01 A2982 RMK AO2 SLP102 T00730012

EXPIRED METARs :
  • 190056Z AUTO 20003KT 10SM OVC120 07/01 A2982 RMK AO2 SLP102 T00660013
  • 182356Z AUTO 00000KT 10SM FEW044 BKN140 08/01 A2982 RMK AO2 SLP102 T00840006 10108 20079 52005

TAF TAF KHOP
Valid from the 19 at 00:00 until the 20 at 06:00 UTC


190000Z 1900/2006 30006KT 9999 SCT025 QNH2981INS
BECMG 1903/1904 18006KT 9999 SCT020 OVC060 620607 QNH2979INS
BECMG 1908/1909 18006KT 9000 -RA SCT010 OVC025 620609 QNH2983INS
BECMG 1914/1915 15006KT 9999 NSW SCT015 BKN030 QNH2986INS WND 24012KT AFT 1918
BECMG 2002/2003 VRB06KT 6000 BR FEW180 QNH2998INS TX13/1920Z TN06/1905Z



MET'MAP, your aeronautical weather chart ! - Copyright ORBIFLY December 2007 - Disclaimer

ORBIFLY MET'MAP TEAM :

Programming & Development : Alexandra Zaïnal
Concept & Development : Baudouin d'Aumeries
Co-Development & Prog : Marc-Olivier Méhu
Technical & hardware support : Manuel Goepfert

Contact : metmap@orbifly.com




SOURCES & CREDITS :

   NOAA       Earth
Advisory